createdAt,value
2018-12-30T00:02:27.680Z,99774.70
2018-12-30T00:04:59.742Z,99762.95
2018-12-30T00:07:33.449Z,99768.13
2018-12-30T00:10:05.351Z,99757.26
2018-12-30T00:12:37.181Z,99757.26
2018-12-30T00:15:09.229Z,99753.37
2018-12-30T00:17:41.091Z,99744.61
2018-12-30T00:20:13.251Z,99754.16
2018-12-30T00:22:44.986Z,99754.38
2018-12-30T00:25:17.113Z,99744.55
2018-12-30T00:27:49.164Z,99748.50
2018-12-30T00:30:21.545Z,99745.49
2018-12-30T00:32:53.325Z,99746.05
2018-12-30T00:35:26.374Z,99744.26
2018-12-30T00:37:58.159Z,99742.02
2018-12-30T00:40:29.823Z,99735.95
2018-12-30T00:43:01.620Z,99742.02
2018-12-30T00:45:33.468Z,99746.69
2018-12-30T00:48:05.211Z,99732.38
2018-12-30T00:50:37.643Z,99735.09
2018-12-30T00:53:09.362Z,99735.13
2018-12-30T00:55:41.285Z,99733.83
2018-12-30T00:58:13.005Z,99738.57
2018-12-30T01:00:44.913Z,99743.38
2018-12-30T01:03:17.198Z,99734.33
2018-12-30T01:05:52.913Z,99735.63
2018-12-30T01:08:25.579Z,99732.66
2018-12-30T01:10:57.326Z,99731.23
2018-12-30T01:13:29.126Z,99724.75
2018-12-30T01:16:00.909Z,99735.19
2018-12-30T01:18:32.998Z,99735.63
2018-12-30T01:21:05.103Z,99740.81
2018-12-30T01:23:37.470Z,99739.13
2018-12-30T01:26:09.105Z,99746.41
2018-12-30T01:28:41.242Z,99744.70
2018-12-30T01:31:13.332Z,99747.64
2018-12-30T01:33:46.154Z,99743.47
2018-12-30T01:36:18.211Z,99743.53
2018-12-30T01:38:50.532Z,99743.68
2018-12-30T01:41:22.063Z,99739.86
2018-12-30T01:43:55.428Z,99740.16
2018-12-30T01:46:27.260Z,99741.87
2018-12-30T01:48:58.961Z,99731.53
2018-12-30T01:51:33.105Z,99731.72
2018-12-30T01:54:04.097Z,99729.63
2018-12-30T01:56:36.235Z,99724.44
2018-12-30T01:59:08.090Z,99718.50
2018-12-30T02:01:39.923Z,99713.31
2018-12-30T02:04:11.849Z,99707.69
2018-12-30T02:06:44.033Z,99716.76
2018-12-30T02:09:15.652Z,99708.98
2018-12-30T02:11:47.541Z,99711.14
2018-12-30T02:14:19.493Z,99702.86
2018-12-30T02:16:51.176Z,99697.33
2018-12-30T02:19:22.635Z,99693.73
2018-12-30T02:21:54.318Z,99691.94
2018-12-30T02:24:26.045Z,99689.69
2018-12-30T02:26:57.912Z,99683.66
2018-12-30T02:29:29.573Z,99668.52
2018-12-30T02:32:01.241Z,99664.13
2018-12-30T02:34:32.952Z,99667.61
2018-12-30T02:37:04.575Z,99666.75
2018-12-30T02:39:36.274Z,99662.48
2018-12-30T02:42:07.992Z,99661.62
2018-12-30T02:44:40.309Z,99646.20
2018-12-30T02:47:11.958Z,99645.52
2018-12-30T02:49:43.645Z,99634.01
2018-12-30T02:52:15.253Z,99624.16
2018-12-30T02:54:46.889Z,99619.03
2018-12-30T02:57:18.723Z,99608.67
2018-12-30T02:59:50.499Z,99605.30
2018-12-30T03:02:22.178Z,99591.05
2018-12-30T03:04:53.800Z,99586.38
2018-12-30T03:07:25.423Z,99586.81
2018-12-30T03:09:57.191Z,99586.44
2018-12-30T03:12:28.707Z,99587.77
2018-12-30T03:15:00.429Z,99588.96
2018-12-30T03:17:32.097Z,99592.91
2018-12-30T03:20:03.858Z,99588.17
2018-12-30T03:22:35.642Z,99581.26
2018-12-30T03:25:07.617Z,99572.13
2018-12-30T03:27:39.222Z,99564.70
2018-12-30T03:30:11.448Z,99561.70
2018-12-30T03:32:43.130Z,99560.47
2018-12-30T03:35:15.042Z,99564.07
2018-12-30T03:37:46.828Z,99558.98
2018-12-30T03:40:18.523Z,99549.04
2018-12-30T03:42:50.179Z,99527.81
2018-12-30T03:45:21.681Z,99523.65
2018-12-30T03:47:53.283Z,99527.47
2018-12-30T03:50:24.901Z,99517.22
2018-12-30T03:52:56.611Z,99516.77
2018-12-30T03:55:28.342Z,99523.27
2018-12-30T03:58:00.033Z,99519.08
2018-12-30T04:00:31.772Z,99514.28
2018-12-30T04:03:03.539Z,99506.86
2018-12-30T04:05:35.307Z,99506.28
2018-12-30T04:08:06.999Z,99514.40
2018-12-30T04:10:38.527Z,99509.22
2018-12-30T04:13:10.027Z,99517.62
2018-12-30T04:15:41.714Z,99520.22
2018-12-30T04:18:13.278Z,99519.30
2018-12-30T04:20:44.839Z,99512.83
2018-12-30T04:23:16.429Z,99524.89
2018-12-30T04:25:47.938Z,99525.67
2018-12-30T04:28:19.542Z,99531.64
2018-12-30T04:30:51.200Z,99533.22
2018-12-30T04:33:22.815Z,99526.74
2018-12-30T04:35:54.371Z,99526.61
2018-12-30T04:38:25.965Z,99531.67
2018-12-30T04:40:57.740Z,99532.31
2018-12-30T04:43:29.288Z,99534.33
2018-12-30T04:46:00.925Z,99528.27
2018-12-30T04:48:32.431Z,99527.34
2018-12-30T04:51:04.019Z,99535.91
2018-12-30T04:53:35.643Z,99524.69
2018-12-30T04:56:07.484Z,99536.31
2018-12-30T04:58:39.175Z,99531.52
2018-12-30T05:01:10.773Z,99523.75
2018-12-30T05:03:42.587Z,99523.75
2018-12-30T05:06:15.069Z,99522.45
2018-12-30T05:08:46.602Z,99518.56
2018-12-30T05:11:18.437Z,99520.27
2018-12-30T05:13:50.076Z,99519.35
2018-12-30T05:16:21.760Z,99523.17
2018-12-30T05:18:53.658Z,99512.50
2018-12-30T05:21:26.781Z,99510.70
2018-12-30T05:23:58.572Z,99501.63
2018-12-30T05:26:32.425Z,99487.27
2018-12-30T05:29:04.090Z,99480.17
2018-12-30T05:31:35.753Z,99477.66
2018-12-30T05:34:07.478Z,99473.77
2018-12-30T05:36:39.205Z,99463.44
2018-12-30T05:39:13.729Z,99462.14
2018-12-30T05:41:45.900Z,99463.06
2018-12-30T05:44:17.566Z,99454.34
2018-12-30T05:46:49.197Z,99457.48
2018-12-30T05:49:20.856Z,99450.14
2018-12-30T05:51:52.666Z,99458.84
2018-12-30T05:54:24.205Z,99455.33
2018-12-30T05:56:55.917Z,99461.80
2018-12-30T05:59:29.053Z,99462.66
2018-12-30T06:02:00.757Z,99458.53
2018-12-30T06:04:32.500Z,99446.71
2018-12-30T06:07:05.311Z,99443.78
2018-12-30T06:09:37.036Z,99433.92
2018-12-30T06:12:08.757Z,99435.63
2018-12-30T06:14:40.497Z,99439.08
2018-12-30T06:17:12.978Z,99448.31
2018-12-30T06:19:44.754Z,99448.75
2018-12-30T06:22:17.562Z,99453.05
2018-12-30T06:24:49.230Z,99456.52
2018-12-30T06:27:21.998Z,99452.70
2018-12-30T06:29:53.712Z,99454.27
2018-12-30T06:32:25.982Z,99451.27
2018-12-30T06:34:57.684Z,99449.47
2018-12-30T06:37:30.398Z,99446.88
2018-12-30T06:40:01.961Z,99452.30
2018-12-30T06:42:33.540Z,99468.80
2018-12-30T06:45:05.461Z,99473.53
2018-12-30T06:47:37.169Z,99470.13
2018-12-30T06:50:10.481Z,99481.52
2018-12-30T06:52:42.197Z,99488.36
2018-12-30T06:55:13.972Z,99488.56
2018-12-30T06:57:45.627Z,99498.45
2018-12-30T07:00:17.214Z,99490.30
2018-12-30T07:02:49.212Z,99492.48
2018-12-30T07:05:20.988Z,99487.20
2018-12-30T07:08:11.560Z,99486.02
2018-12-30T07:10:43.850Z,99488.59
2018-12-30T07:13:15.544Z,99487.14
2018-12-30T07:15:47.413Z,99491.88
2018-12-30T07:18:19.071Z,99504.92
2018-12-30T07:20:51.044Z,99513.20
2018-12-30T07:23:23.031Z,99510.23
2018-12-30T07:25:54.675Z,99511.88
2018-12-30T07:28:26.355Z,99509.59
2018-12-30T07:30:58.093Z,99517.62
2018-12-30T07:33:29.676Z,99520.31
2018-12-30T07:36:01.519Z,99528.81
2018-12-30T07:38:33.550Z,99538.22
2018-12-30T07:41:07.698Z,99539.28
2018-12-30T07:43:39.499Z,99547.81
2018-12-30T07:46:11.993Z,99535.47
2018-12-30T07:48:43.658Z,99530.86
2018-12-30T07:51:15.303Z,99531.71
2018-12-30T07:53:47.246Z,99546.34
2018-12-30T07:56:18.988Z,99547.27
2018-12-30T07:58:50.943Z,99555.77
2018-12-30T08:01:22.991Z,99562.69
2018-12-30T08:03:55.006Z,99561.80
2018-12-30T08:06:28.659Z,99562.58
2018-12-30T08:09:00.772Z,99568.59
2018-12-30T08:11:33.484Z,99578.59
2018-12-30T08:14:05.757Z,99582.54
2018-12-30T08:16:38.801Z,99582.03
2018-12-30T08:19:10.508Z,99573.80
2018-12-30T08:21:42.781Z,99576.91
2018-12-30T08:24:14.513Z,99586.94
2018-12-30T08:26:47.162Z,99592.13
2018-12-30T08:29:21.032Z,99595.05
2018-12-30T08:31:53.247Z,99589.03
2018-12-30T08:34:24.994Z,99600.98
2018-12-30T08:36:56.739Z,99610.54
2018-12-30T08:39:28.287Z,99610.67
2018-12-30T08:41:59.996Z,99613.30
2018-12-30T08:44:31.694Z,99617.98
2018-12-30T08:47:03.581Z,99617.92
2018-12-30T08:49:35.695Z,99610.67
2018-12-30T08:52:07.639Z,99616.75
2018-12-30T08:54:39.353Z,99615.50
2018-12-30T08:57:11.590Z,99609.64
2018-12-30T08:59:43.904Z,99615.37
2018-12-30T09:02:15.876Z,99612.47
2018-12-30T09:04:47.612Z,99625.27
2018-12-30T09:07:19.606Z,99615.95
2018-12-30T09:09:51.228Z,99608.77
2018-12-30T09:12:22.901Z,99622.72
2018-12-30T09:14:54.575Z,99623.88
2018-12-30T09:17:26.336Z,99630.77
2018-12-30T09:19:58.306Z,99627.77
2018-12-30T09:22:30.058Z,99624.73
2018-12-30T09:25:01.942Z,99624.66
2018-12-30T09:27:33.714Z,99623.01
2018-12-30T09:30:05.828Z,99608.33
2018-12-30T09:32:37.711Z,99600.16
2018-12-30T09:35:09.428Z,99590.23
2018-12-30T09:37:41.483Z,99588.94
2018-12-30T09:40:14.408Z,99583.94
2018-12-30T09:42:46.513Z,99575.33
2018-12-30T09:45:18.572Z,99570.70
2018-12-30T09:47:50.272Z,99573.82
2018-12-30T09:50:22.446Z,99570.45
2018-12-30T09:52:54.435Z,99563.52
2018-12-30T09:55:26.671Z,99568.30
2018-12-30T09:57:58.784Z,99568.63
2018-12-30T10:00:32.873Z,99558.23
2018-12-30T10:03:04.941Z,99549.86
2018-12-30T10:05:37.511Z,99543.92
2018-12-30T10:08:09.669Z,99538.83
2018-12-30T10:10:42.521Z,99540.30
2018-12-30T10:13:17.512Z,99534.52
2018-12-30T10:15:49.180Z,99530.58
2018-12-30T10:18:21.459Z,99527.30
2018-12-30T10:20:55.184Z,99519.39
2018-12-30T10:23:27.206Z,99515.23
2018-12-30T10:25:59.025Z,99517.67
2018-12-30T10:28:31.274Z,99514.78
2018-12-30T10:31:03.759Z,99513.57
2018-12-30T10:33:35.938Z,99503.16
2018-12-30T10:36:08.683Z,99498.22
2018-12-30T10:38:41.425Z,99499.72
2018-12-30T10:41:15.003Z,99497.37
2018-12-30T10:43:47.087Z,99494.26
2018-12-30T10:46:19.515Z,99493.81
2018-12-30T10:48:51.574Z,99492.28
2018-12-30T10:51:23.269Z,99492.64
2018-12-30T10:54:00.616Z,99497.93
2018-12-30T10:56:29.890Z,99496.17
2018-12-30T10:59:01.693Z,99498.99
2018-12-30T11:01:33.738Z,99499.38
2018-12-30T11:04:05.555Z,99495.09
2018-12-30T11:06:37.332Z,99493.19
2018-12-30T11:09:10.353Z,99491.87
2018-12-30T11:11:42.882Z,99488.73
2018-12-30T11:14:14.860Z,99487.92
2018-12-30T11:16:46.879Z,99489.21
2018-12-30T11:19:19.035Z,99490.30
2018-12-30T11:21:52.337Z,99479.80
2018-12-30T11:24:24.662Z,99490.58
2018-12-30T11:26:56.434Z,99483.62
2018-12-30T11:29:28.391Z,99475.67
2018-12-30T11:32:00.377Z,99476.13
2018-12-30T11:34:32.169Z,99468.45
2018-12-30T11:37:04.140Z,99464.23
2018-12-30T11:39:35.944Z,99461.39
2018-12-30T11:42:07.855Z,99461.86
2018-12-30T11:44:39.937Z,99451.78
2018-12-30T11:47:11.741Z,99445.22
2018-12-30T11:49:43.385Z,99445.43
2018-12-30T11:52:15.255Z,99447.26
2018-12-30T11:54:48.635Z,99437.19
2018-12-30T11:57:20.380Z,99435.80
2018-12-30T11:59:52.334Z,99430.19
2018-12-30T12:02:24.446Z,99421.52
2018-12-30T12:04:57.251Z,99409.56
2018-12-30T12:07:29.037Z,99411.41
2018-12-30T12:10:01.157Z,99408.64
2018-12-30T12:12:33.081Z,99398.43
2018-12-30T12:15:06.694Z,99393.34
2018-12-30T12:17:39.703Z,99393.66
2018-12-30T12:20:11.698Z,99393.45
2018-12-30T12:22:43.648Z,99389.25
2018-12-30T12:25:15.470Z,99392.27
2018-12-30T12:27:47.556Z,99392.56
2018-12-30T12:30:19.415Z,99387.58
2018-12-30T12:32:52.190Z,99396.35
2018-12-30T12:35:24.524Z,99394.02
2018-12-30T12:37:56.326Z,99392.34
2018-12-30T12:40:28.277Z,99389.05
2018-12-30T12:43:00.077Z,99388.03
2018-12-30T12:45:32.427Z,99383.61
2018-12-30T12:48:04.199Z,99381.83
2018-12-30T12:50:36.671Z,99382.72
2018-12-30T12:53:08.623Z,99392.05
2018-12-30T12:55:41.393Z,99393.07
2018-12-30T12:58:13.659Z,99399.77
2018-12-30T13:00:49.929Z,99406.75
2018-12-30T13:03:22.053Z,99405.12
2018-12-30T13:05:53.968Z,99397.34
2018-12-30T13:08:26.254Z,99395.53
2018-12-30T13:11:00.376Z,99390.41
2018-12-30T13:13:32.894Z,99389.59
2018-12-30T13:16:06.790Z,99391.63
2018-12-30T13:18:38.993Z,99383.48
2018-12-30T13:21:10.987Z,99394.05
2018-12-30T13:23:43.220Z,99393.11
2018-12-30T13:26:16.711Z,99405.06
2018-12-30T13:28:48.836Z,99404.31
2018-12-30T13:31:21.231Z,99408.69
2018-12-30T13:33:54.584Z,99413.98
2018-12-30T13:36:28.008Z,99410.78
2018-12-30T13:39:00.897Z,99404.73
2018-12-30T13:41:34.242Z,99401.17
2018-12-30T13:44:06.826Z,99402.03
2018-12-30T13:46:39.150Z,99399.06
2018-12-30T13:49:13.447Z,99403.53
2018-12-30T13:51:46.774Z,99406.56
2018-12-30T13:54:20.176Z,99409.84
2018-12-30T13:56:53.616Z,99412.91
2018-12-30T13:59:26.637Z,99413.41
2018-12-30T14:02:00.718Z,99412.39
2018-12-30T14:04:34.486Z,99415.39
2018-12-30T14:07:06.866Z,99417.28
2018-12-30T14:09:39.439Z,99428.81
2018-12-30T14:12:12.500Z,99422.05
2018-12-30T14:14:45.073Z,99417.79
2018-12-30T14:17:18.608Z,99424.58
2018-12-30T14:19:51.053Z,99431.02
2018-12-30T14:22:23.678Z,99431.83
2018-12-30T14:24:55.854Z,99432.86
2018-12-30T14:27:28.479Z,99429.23
2018-12-30T14:30:01.159Z,99434.01
2018-12-30T14:32:33.533Z,99438.25
2018-12-30T14:35:06.341Z,99441.72
2018-12-30T14:37:41.553Z,99449.44
2018-12-30T14:40:13.866Z,99446.81
2018-12-30T14:42:45.784Z,99444.23
2018-12-30T14:45:19.840Z,99445.42
2018-12-30T14:47:52.477Z,99450.12
2018-12-30T14:50:25.023Z,99459.91
2018-12-30T14:52:57.165Z,99458.53
2018-12-30T14:55:29.364Z,99461.39
2018-12-30T14:58:01.919Z,99464.63
2018-12-30T15:00:38.430Z,99467.21
2018-12-30T15:03:11.055Z,99470.67
2018-12-30T15:05:44.712Z,99477.53
2018-12-30T15:08:17.424Z,99475.92
2018-12-30T15:10:49.721Z,99477.27
2018-12-30T15:13:22.830Z,99484.05
2018-12-30T15:15:54.638Z,99481.48
2018-12-30T15:18:27.484Z,99481.14
2018-12-30T15:21:03.323Z,99482.36
2018-12-30T15:23:37.556Z,99486.45
2018-12-30T15:26:10.151Z,99487.82
2018-12-30T15:28:42.541Z,99483.44
2018-12-30T15:31:14.702Z,99486.45
2018-12-30T15:33:46.927Z,99489.13
2018-12-30T15:36:19.110Z,99489.80
2018-12-30T15:38:51.425Z,99486.52
2018-12-30T15:41:24.263Z,99490.53
2018-12-30T15:43:56.900Z,99487.02
2018-12-30T15:46:29.165Z,99490.00
2018-12-30T15:49:04.395Z,99502.62
2018-12-30T15:51:39.592Z,99497.86
2018-12-30T15:54:11.916Z,99505.39
2018-12-30T15:56:43.994Z,99507.63
2018-12-30T15:59:16.229Z,99508.53
2018-12-30T16:01:50.691Z,99506.80
2018-12-30T16:04:23.708Z,99509.17
2018-12-30T16:06:55.922Z,99514.77
2018-12-30T16:09:28.858Z,99525.22
2018-12-30T16:12:01.882Z,99521.14
2018-12-30T16:14:34.391Z,99526.58
2018-12-30T16:17:06.122Z,99524.54
2018-12-30T16:19:38.236Z,99521.43
2018-12-30T16:22:10.253Z,99521.09
2018-12-30T16:24:43.371Z,99521.82
2018-12-30T16:27:15.696Z,99516.81
2018-12-30T16:29:47.695Z,99516.59
2018-12-30T16:32:19.495Z,99515.42
2018-12-30T16:34:51.745Z,99517.75
2018-12-30T16:37:24.719Z,99514.96
2018-12-30T16:39:56.890Z,99522.27
2018-12-30T16:42:29.214Z,99525.33
2018-12-30T16:45:02.601Z,99527.11
2018-12-30T16:47:41.595Z,99530.06
2018-12-30T16:50:09.155Z,99529.52
2018-12-30T16:52:41.554Z,99534.45
2018-12-30T16:55:13.501Z,99537.25
2018-12-30T16:57:45.287Z,99543.48
2018-12-30T17:00:17.427Z,99551.49
2018-12-30T17:02:50.252Z,99553.50
2018-12-30T17:05:22.005Z,99551.55
2018-12-30T17:07:54.291Z,99551.95
2018-12-30T17:10:27.794Z,99555.62
2018-12-30T17:13:00.982Z,99559.52
2018-12-30T17:15:33.664Z,99565.48
2018-12-30T17:18:05.792Z,99573.54
2018-12-30T17:20:37.780Z,99578.99
2018-12-30T17:23:09.921Z,99585.89
2018-12-30T17:25:43.701Z,99582.52
2018-12-30T17:28:15.953Z,99581.59
2018-12-30T17:30:47.852Z,99600.79
2018-12-30T17:33:19.828Z,99600.34
2018-12-30T17:35:51.694Z,99607.02
2018-12-30T17:38:23.974Z,99608.82
2018-12-30T17:41:01.492Z,99607.56
2018-12-30T17:43:31.680Z,99605.41
2018-12-30T17:46:03.589Z,99614.02
2018-12-30T17:48:35.742Z,99611.91
2018-12-30T17:51:07.558Z,99615.70
2018-12-30T17:53:39.491Z,99613.55
2018-12-30T17:56:11.977Z,99613.48
2018-12-30T17:58:44.475Z,99611.84
2018-12-30T18:01:17.431Z,99604.58
2018-12-30T18:03:50.194Z,99608.58
2018-12-30T18:06:21.997Z,99605.54
2018-12-30T18:08:54.495Z,99606.94
2018-12-30T18:11:27.016Z,99595.34
2018-12-30T18:14:05.708Z,99608.30
2018-12-30T18:16:39.921Z,99607.20
2018-12-30T18:19:13.982Z,99616.97
2018-12-30T18:21:46.729Z,99619.47
2018-12-30T18:24:19.618Z,99617.52
2018-12-30T18:26:52.062Z,99625.06
2018-12-30T18:29:26.276Z,99615.77
2018-12-30T18:31:57.860Z,99617.58
2018-12-30T18:34:30.544Z,99614.34
2018-12-30T18:37:03.533Z,99616.66
2018-12-30T18:39:36.022Z,99612.46
2018-12-30T18:42:09.419Z,99618.09
2018-12-30T18:44:44.770Z,99617.69
2018-12-30T18:47:17.071Z,99620.27
2018-12-30T18:49:50.830Z,99624.74
2018-12-30T18:52:24.370Z,99627.91
2018-12-30T18:54:57.223Z,99629.44
2018-12-30T18:57:32.177Z,99638.56
2018-12-30T19:00:06.823Z,99645.20
2018-12-30T19:02:38.965Z,99637.71
2018-12-30T19:05:14.366Z,99643.49
2018-12-30T19:07:47.327Z,99640.48
2018-12-30T19:10:22.927Z,99639.54
2018-12-30T19:12:57.186Z,99637.52
2018-12-30T19:15:32.763Z,99637.11
2018-12-30T19:18:05.892Z,99639.83
2018-12-30T19:20:49.752Z,99642.22
2018-12-30T19:23:25.622Z,99640.63
2018-12-30T19:26:01.664Z,99640.50
2018-12-30T19:28:37.057Z,99644.53
2018-12-30T19:31:11.321Z,99639.50
2018-12-30T19:33:45.690Z,99639.72
2018-12-30T19:36:21.797Z,99641.01
2018-12-30T19:38:53.850Z,99645.80
2018-12-30T19:41:27.357Z,99646.69
2018-12-30T19:44:00.128Z,99646.33
2018-12-30T19:46:31.935Z,99647.19
2018-12-30T19:49:04.704Z,99647.19
2018-12-30T19:51:38.765Z,99647.69
2018-12-30T19:54:12.044Z,99646.54
2018-12-30T19:56:45.635Z,99648.39
2018-12-30T19:59:18.295Z,99655.72
2018-12-30T20:01:51.300Z,99643.22
2018-12-30T20:04:24.253Z,99649.33
2018-12-30T20:07:03.405Z,99648.52
2018-12-30T20:09:31.243Z,99658.95
2018-12-30T20:12:04.574Z,99657.59
2018-12-30T20:14:37.641Z,99649.89
2018-12-30T20:17:09.977Z,99657.80
2018-12-30T20:19:44.152Z,99662.12
2018-12-30T20:22:18.293Z,99661.23
2018-12-30T20:24:54.164Z,99662.30
2018-12-30T20:27:26.463Z,99659.23
2018-12-30T20:29:58.309Z,99656.60
2018-12-30T20:32:31.889Z,99659.77
2018-12-30T20:35:04.923Z,99660.90
2018-12-30T20:37:37.513Z,99664.39
2018-12-30T20:40:16.197Z,99671.22
2018-12-30T20:42:49.092Z,99665.39
2018-12-30T20:45:23.843Z,99674.82
2018-12-30T20:47:58.617Z,99679.20
2018-12-30T20:50:32.704Z,99679.12
2018-12-30T20:53:05.241Z,99672.90
2018-12-30T20:55:37.570Z,99682.96
2018-12-30T20:58:11.986Z,99672.61
2018-12-30T21:00:46.786Z,99680.48
2018-12-30T21:03:21.275Z,99678.77
2018-12-30T21:05:57.875Z,99672.80
2018-12-30T21:08:37.784Z,99675.21
2018-12-30T21:11:19.364Z,99671.52
2018-12-30T21:13:56.707Z,99682.89
2018-12-30T21:16:34.405Z,99682.48
2018-12-30T21:19:07.950Z,99688.69
2018-12-30T21:21:41.724Z,99678.73
2018-12-30T21:24:21.649Z,99679.14
2018-12-30T21:26:57.383Z,99683.95
2018-12-30T21:29:32.940Z,99691.70
2018-12-30T21:32:05.850Z,99692.20
2018-12-30T21:34:49.288Z,99697.91
2018-12-30T21:37:26.155Z,99689.84
2018-12-30T21:40:12.928Z,99687.80
2018-12-30T21:42:49.997Z,99694.50
2018-12-30T21:45:24.732Z,99695.53
2018-12-30T21:47:57.931Z,99715.03
2018-12-30T21:50:32.491Z,99715.41
2018-12-30T21:53:08.386Z,99709.05
2018-12-30T21:55:41.803Z,99709.13
2018-12-30T21:58:14.149Z,99709.61
2018-12-30T22:00:55.399Z,99718.28
2018-12-30T22:03:38.765Z,99719.25
2018-12-30T22:06:15.637Z,99717.69
2018-12-30T22:08:50.312Z,99710.10
2018-12-30T22:11:27.176Z,99711.62
2018-12-30T22:14:03.068Z,99716.89
2018-12-30T22:16:41.324Z,99709.41
2018-12-30T22:19:15.380Z,99720.32
2018-12-30T22:21:49.099Z,99721.34
2018-12-30T22:24:27.035Z,99709.02
2018-12-30T22:27:02.969Z,99712.56
2018-12-30T22:29:37.229Z,99718.25
2018-12-30T22:32:10.732Z,99729.11
2018-12-30T22:34:45.833Z,99730.49
2018-12-30T22:37:17.920Z,99733.61
2018-12-30T22:39:50.869Z,99737.56
2018-12-30T22:42:23.304Z,99735.27
2018-12-30T22:44:56.344Z,99742.42
2018-12-30T22:47:28.677Z,99740.22
2018-12-30T22:50:04.132Z,99743.14
2018-12-30T22:52:41.133Z,99740.78
2018-12-30T22:55:13.305Z,99744.65
2018-12-30T22:57:45.796Z,99732.23
2018-12-30T23:00:35.235Z,99735.20
2018-12-30T23:03:08.173Z,99743.02
2018-12-30T23:05:40.061Z,99743.92
2018-12-30T23:08:12.240Z,99751.34
2018-12-30T23:10:45.057Z,99744.90
2018-12-30T23:13:17.659Z,99749.70
2018-12-30T23:15:49.608Z,99742.06
2018-12-30T23:18:21.426Z,99757.05
2018-12-30T23:20:55.397Z,99751.97
2018-12-30T23:23:27.132Z,99748.11
2018-12-30T23:25:59.443Z,99751.55
2018-12-30T23:28:31.717Z,99750.77
2018-12-30T23:31:05.250Z,99744.95
2018-12-30T23:33:37.979Z,99742.03
2018-12-30T23:36:09.815Z,99733.02
2018-12-30T23:38:43.104Z,99732.05
2018-12-30T23:41:15.025Z,99732.83
2018-12-30T23:43:46.924Z,99738.40
2018-12-30T23:46:19.000Z,99741.91
2018-12-30T23:48:50.883Z,99734.39
2018-12-30T23:51:23.061Z,99741.41
2018-12-30T23:53:55.044Z,99738.95
2018-12-30T23:56:26.811Z,99736.91
2018-12-30T23:59:03.639Z,99725.59
